sensor_id;sensor_type;location;lat;lon;timestamp;P1;durP1;ratioP1;P2;durP2;ratioP2
63699;SDS011;49845;47.130;142.766;2024-02-16T00:00:52;6.07;;;4.38;;
63699;SDS011;49845;47.130;142.766;2024-02-16T00:03:24;6.10;;;3.85;;
63699;SDS011;49845;47.130;142.766;2024-02-16T00:05:54;6.47;;;3.95;;
63699;SDS011;49845;47.130;142.766;2024-02-16T00:08:25;4.30;;;3.88;;
63699;SDS011;49845;47.130;142.766;2024-02-16T00:10:55;6.57;;;5.03;;
63699;SDS011;49845;47.130;142.766;2024-02-16T00:13:26;5.28;;;3.50;;
63699;SDS011;49845;47.130;142.766;2024-02-16T00:15:56;5.40;;;4.03;;
63699;SDS011;49845;47.130;142.766;2024-02-16T00:18:29;5.50;;;4.07;;
63699;SDS011;49845;47.130;142.766;2024-02-16T00:20:59;5.07;;;3.95;;
63699;SDS011;49845;47.130;142.766;2024-02-16T00:23:30;4.65;;;4.05;;
63699;SDS011;49845;47.130;142.766;2024-02-16T00:26:01;5.45;;;3.80;;
63699;SDS011;49845;47.130;142.766;2024-02-16T00:28:34;3.65;;;3.35;;
63699;SDS011;49845;47.130;142.766;2024-02-16T00:31:05;5.20;;;3.55;;
63699;SDS011;49845;47.130;142.766;2024-02-16T00:33:37;5.22;;;3.50;;
63699;SDS011;49845;47.130;142.766;2024-02-16T00:36:07;5.63;;;3.78;;
63699;SDS011;49845;47.130;142.766;2024-02-16T00:38:38;6.40;;;4.30;;
63699;SDS011;49845;47.130;142.766;2024-02-16T00:41:10;4.60;;;3.70;;
63699;SDS011;49845;47.130;142.766;2024-02-16T00:43:47;6.65;;;4.47;;
63699;SDS011;49845;47.130;142.766;2024-02-16T00:46:18;5.45;;;4.00;;
63699;SDS011;49845;47.130;142.766;2024-02-16T00:48:52;5.15;;;3.53;;
63699;SDS011;49845;47.130;142.766;2024-02-16T00:51:23;5.80;;;4.10;;
63699;SDS011;49845;47.130;142.766;2024-02-16T00:53:54;4.03;;;3.60;;
63699;SDS011;49845;47.130;142.766;2024-02-16T00:56:25;3.92;;;3.55;;
63699;SDS011;49845;47.130;142.766;2024-02-16T00:58:55;8.10;;;3.90;;
63699;SDS011;49845;47.130;142.766;2024-02-16T01:01:25;4.97;;;3.83;;
63699;SDS011;49845;47.130;142.766;2024-02-16T01:03:58;4.47;;;3.50;;
63699;SDS011;49845;47.130;142.766;2024-02-16T01:06:28;5.72;;;3.85;;
63699;SDS011;49845;47.130;142.766;2024-02-16T01:08:59;6.10;;;4.30;;
63699;SDS011;49845;47.130;142.766;2024-02-16T01:11:29;5.40;;;4.20;;
63699;SDS011;49845;47.130;142.766;2024-02-16T01:14:00;5.00;;;3.35;;
63699;SDS011;49845;47.130;142.766;2024-02-16T01:16:30;5.43;;;3.90;;
63699;SDS011;49845;47.130;142.766;2024-02-16T01:19:02;5.07;;;3.47;;
63699;SDS011;49845;47.130;142.766;2024-02-16T01:21:34;5.53;;;3.90;;
63699;SDS011;49845;47.130;142.766;2024-02-16T01:24:04;5.47;;;3.40;;
63699;SDS011;49845;47.130;142.766;2024-02-16T01:26:36;4.10;;;3.67;;
63699;SDS011;49845;47.130;142.766;2024-02-16T01:29:07;4.20;;;3.30;;
63699;SDS011;49845;47.130;142.766;2024-02-16T01:31:37;5.95;;;3.40;;
63699;SDS011;49845;47.130;142.766;2024-02-16T01:34:09;5.40;;;3.67;;
63699;SDS011;49845;47.130;142.766;2024-02-16T01:36:40;5.03;;;3.90;;
63699;SDS011;49845;47.130;142.766;2024-02-16T01:39:10;3.78;;;3.38;;
63699;SDS011;49845;47.130;142.766;2024-02-16T01:41:40;7.18;;;3.83;;
63699;SDS011;49845;47.130;142.766;2024-02-16T01:44:11;4.50;;;3.80;;
63699;SDS011;49845;47.130;142.766;2024-02-16T01:46:44;5.05;;;3.67;;
63699;SDS011;49845;47.130;142.766;2024-02-16T01:49:16;4.88;;;3.42;;
63699;SDS011;49845;47.130;142.766;2024-02-16T01:51:47;4.88;;;3.55;;
63699;SDS011;49845;47.130;142.766;2024-02-16T01:54:17;6.03;;;3.80;;
63699;SDS011;49845;47.130;142.766;2024-02-16T01:56:48;4.25;;;3.47;;
63699;SDS011;49845;47.130;142.766;2024-02-16T01:59:19;5.15;;;3.90;;
63699;SDS011;49845;47.130;142.766;2024-02-16T02:01:50;6.35;;;3.22;;
63699;SDS011;49845;47.130;142.766;2024-02-16T02:04:22;4.38;;;3.33;;
63699;SDS011;49845;47.130;142.766;2024-02-16T02:06:53;5.60;;;3.38;;
63699;SDS011;49845;47.130;142.766;2024-02-16T02:09:24;3.78;;;2.97;;
63699;SDS011;49845;47.130;142.766;2024-02-16T02:11:54;6.78;;;3.85;;
63699;SDS011;49845;47.130;142.766;2024-02-16T02:14:25;3.75;;;3.30;;
63699;SDS011;49845;47.130;142.766;2024-02-16T02:16:55;6.93;;;4.10;;
63699;SDS011;49845;47.130;142.766;2024-02-16T02:19:27;5.35;;;4.00;;
63699;SDS011;49845;47.130;142.766;2024-02-16T02:21:59;3.70;;;2.90;;
63699;SDS011;49845;47.130;142.766;2024-02-16T02:24:31;5.28;;;3.40;;
63699;SDS011;49845;47.130;142.766;2024-02-16T02:27:02;4.78;;;3.70;;
63699;SDS011;49845;47.130;142.766;2024-02-16T02:29:32;5.95;;;3.50;;
63699;SDS011;49845;47.130;142.766;2024-02-16T02:32:03;4.93;;;3.15;;
63699;SDS011;49845;47.130;142.766;2024-02-16T02:34:34;5.63;;;3.10;;
63699;SDS011;49845;47.130;142.766;2024-02-16T02:37:05;6.45;;;3.50;;
63699;SDS011;49845;47.130;142.766;2024-02-16T02:39:38;6.57;;;3.60;;
63699;SDS011;49845;47.130;142.766;2024-02-16T02:42:08;5.70;;;3.17;;
63699;SDS011;49845;47.130;142.766;2024-02-16T02:44:39;5.18;;;3.28;;
63699;SDS011;49845;47.130;142.766;2024-02-16T02:47:12;4.50;;;3.47;;
63699;SDS011;49845;47.130;142.766;2024-02-16T02:49:42;3.38;;;3.00;;
63699;SDS011;49845;47.130;142.766;2024-02-16T02:52:12;6.97;;;3.63;;
63699;SDS011;49845;47.130;142.766;2024-02-16T02:54:45;6.07;;;3.95;;
63699;SDS011;49845;47.130;142.766;2024-02-16T02:57:15;7.10;;;3.58;;
63699;SDS011;49845;47.130;142.766;2024-02-16T02:59:45;5.55;;;3.22;;
63699;SDS011;49845;47.130;142.766;2024-02-16T03:02:18;3.72;;;3.30;;
63699;SDS011;49845;47.130;142.766;2024-02-16T03:04:49;5.30;;;3.88;;
63699;SDS011;49845;47.130;142.766;2024-02-16T03:07:22;4.60;;;3.30;;
63699;SDS011;49845;47.130;142.766;2024-02-16T03:09:55;5.10;;;3.58;;
63699;SDS011;49845;47.130;142.766;2024-02-16T03:12:25;4.57;;;3.35;;
63699;SDS011;49845;47.130;142.766;2024-02-16T03:14:56;5.05;;;3.38;;
63699;SDS011;49845;47.130;142.766;2024-02-16T03:17:27;4.10;;;3.17;;
63699;SDS011;49845;47.130;142.766;2024-02-16T03:19:57;4.75;;;3.47;;
63699;SDS011;49845;47.130;142.766;2024-02-16T03:22:28;7.45;;;3.33;;
63699;SDS011;49845;47.130;142.766;2024-02-16T03:25:00;4.35;;;3.00;;
63699;SDS011;49845;47.130;142.766;2024-02-16T03:27:32;4.50;;;3.40;;
63699;SDS011;49845;47.130;142.766;2024-02-16T03:30:03;5.88;;;3.40;;
63699;SDS011;49845;47.130;142.766;2024-02-16T03:32:34;4.47;;;3.03;;
63699;SDS011;49845;47.130;142.766;2024-02-16T03:35:05;6.43;;;3.30;;
63699;SDS011;49845;47.130;142.766;2024-02-16T03:37:36;3.30;;;2.95;;
63699;SDS011;49845;47.130;142.766;2024-02-16T03:40:09;6.85;;;4.00;;
63699;SDS011;49845;47.130;142.766;2024-02-16T03:42:40;6.85;;;3.90;;
63699;SDS011;49845;47.130;142.766;2024-02-16T03:45:11;8.02;;;4.40;;
63699;SDS011;49845;47.130;142.766;2024-02-16T03:47:42;5.05;;;3.72;;
63699;SDS011;49845;47.130;142.766;2024-02-16T03:50:12;4.18;;;3.60;;
63699;SDS011;49845;47.130;142.766;2024-02-16T03:52:43;6.05;;;3.60;;
63699;SDS011;49845;47.130;142.766;2024-02-16T03:55:15;4.57;;;3.38;;
63699;SDS011;49845;47.130;142.766;2024-02-16T03:57:45;5.70;;;3.40;;
63699;SDS011;49845;47.130;142.766;2024-02-16T04:00:16;3.92;;;3.13;;
63699;SDS011;49845;47.130;142.766;2024-02-16T04:02:48;4.28;;;2.90;;
63699;SDS011;49845;47.130;142.766;2024-02-16T04:05:18;4.88;;;3.20;;
63699;SDS011;49845;47.130;142.766;2024-02-16T04:07:49;6.07;;;3.53;;
63699;SDS011;49845;47.130;142.766;2024-02-16T04:10:21;5.05;;;3.70;;
63699;SDS011;49845;47.130;142.766;2024-02-16T04:12:51;5.28;;;3.40;;
63699;SDS011;49845;47.130;142.766;2024-02-16T04:15:22;5.00;;;3.30;;
63699;SDS011;49845;47.130;142.766;2024-02-16T04:17:53;4.32;;;3.00;;
63699;SDS011;49845;47.130;142.766;2024-02-16T04:20:23;3.25;;;2.63;;
63699;SDS011;49845;47.130;142.766;2024-02-16T04:22:54;6.38;;;3.10;;
63699;SDS011;49845;47.130;142.766;2024-02-16T04:25:26;4.38;;;2.90;;
63699;SDS011;49845;47.130;142.766;2024-02-16T04:27:56;3.58;;;2.88;;
63699;SDS011;49845;47.130;142.766;2024-02-16T04:30:27;6.43;;;3.72;;
63699;SDS011;49845;47.130;142.766;2024-02-16T04:32:57;4.53;;;3.40;;
63699;SDS011;49845;47.130;142.766;2024-02-16T04:35:29;4.63;;;3.58;;
63699;SDS011;49845;47.130;142.766;2024-02-16T04:37:59;6.15;;;3.50;;
63699;SDS011;49845;47.130;142.766;2024-02-16T04:40:33;6.82;;;3.72;;
63699;SDS011;49845;47.130;142.766;2024-02-16T04:43:06;5.28;;;3.33;;
63699;SDS011;49845;47.130;142.766;2024-02-16T04:45:37;5.20;;;3.67;;
63699;SDS011;49845;47.130;142.766;2024-02-16T04:48:08;7.07;;;3.30;;
63699;SDS011;49845;47.130;142.766;2024-02-16T04:50:38;5.55;;;3.60;;
63699;SDS011;49845;47.130;142.766;2024-02-16T04:53:09;4.65;;;3.13;;
63699;SDS011;49845;47.130;142.766;2024-02-16T04:55:41;6.50;;;3.28;;
63699;SDS011;49845;47.130;142.766;2024-02-16T04:58:11;4.03;;;3.05;;
63699;SDS011;49845;47.130;142.766;2024-02-16T05:00:42;6.43;;;3.72;;
63699;SDS011;49845;47.130;142.766;2024-02-16T05:03:14;6.18;;;3.42;;
63699;SDS011;49845;47.130;142.766;2024-02-16T05:05:45;6.20;;;3.55;;
63699;SDS011;49845;47.130;142.766;2024-02-16T05:08:15;5.93;;;3.33;;
63699;SDS011;49845;47.130;142.766;2024-02-16T05:10:47;6.53;;;3.60;;
63699;SDS011;49845;47.130;142.766;2024-02-16T05:13:18;6.18;;;3.25;;
63699;SDS011;49845;47.130;142.766;2024-02-16T05:15:51;6.38;;;3.40;;
63699;SDS011;49845;47.130;142.766;2024-02-16T05:18:22;6.57;;;3.50;;
63699;SDS011;49845;47.130;142.766;2024-02-16T05:20:53;7.45;;;4.30;;
63699;SDS011;49845;47.130;142.766;2024-02-16T05:23:23;6.93;;;3.97;;
63699;SDS011;49845;47.130;142.766;2024-02-16T05:25:55;5.30;;;3.38;;
63699;SDS011;49845;47.130;142.766;2024-02-16T05:28:26;5.07;;;2.95;;
63699;SDS011;49845;47.130;142.766;2024-02-16T05:30:58;6.25;;;3.50;;
63699;SDS011;49845;47.130;142.766;2024-02-16T05:33:42;5.85;;;3.70;;
63699;SDS011;49845;47.130;142.766;2024-02-16T05:36:16;10.50;;;3.33;;
63699;SDS011;49845;47.130;142.766;2024-02-16T05:38:48;7.13;;;3.40;;
63699;SDS011;49845;47.130;142.766;2024-02-16T05:41:21;9.95;;;3.47;;
63699;SDS011;49845;47.130;142.766;2024-02-16T05:43:51;7.53;;;3.67;;
63699;SDS011;49845;47.130;142.766;2024-02-16T05:46:22;7.95;;;3.63;;
63699;SDS011;49845;47.130;142.766;2024-02-16T05:48:52;4.63;;;2.97;;
63699;SDS011;49845;47.130;142.766;2024-02-16T05:51:23;9.88;;;3.50;;
63699;SDS011;49845;47.130;142.766;2024-02-16T05:53:53;4.85;;;3.25;;
63699;SDS011;49845;47.130;142.766;2024-02-16T05:56:26;6.32;;;3.22;;
63699;SDS011;49845;47.130;142.766;2024-02-16T05:58:56;6.97;;;3.67;;
63699;SDS011;49845;47.130;142.766;2024-02-16T06:01:27;6.35;;;4.07;;
63699;SDS011;49845;47.130;142.766;2024-02-16T06:03:58;6.15;;;4.20;;
63699;SDS011;49845;47.130;142.766;2024-02-16T06:06:32;8.65;;;3.22;;
63699;SDS011;49845;47.130;142.766;2024-02-16T06:09:06;5.78;;;3.25;;
63699;SDS011;49845;47.130;142.766;2024-02-16T06:11:38;6.15;;;3.10;;
63699;SDS011;49845;47.130;142.766;2024-02-16T06:14:09;8.48;;;3.92;;
63699;SDS011;49845;47.130;142.766;2024-02-16T06:16:42;5.20;;;3.33;;
63699;SDS011;49845;47.130;142.766;2024-02-16T06:19:14;6.18;;;3.38;;
63699;SDS011;49845;47.130;142.766;2024-02-16T06:21:44;6.68;;;3.80;;
63699;SDS011;49845;47.130;142.766;2024-02-16T06:24:15;7.50;;;3.58;;
63699;SDS011;49845;47.130;142.766;2024-02-16T06:26:48;6.13;;;3.55;;
63699;SDS011;49845;47.130;142.766;2024-02-16T06:29:23;7.72;;;3.67;;
63699;SDS011;49845;47.130;142.766;2024-02-16T06:31:54;6.72;;;3.58;;
63699;SDS011;49845;47.130;142.766;2024-02-16T06:34:24;5.65;;;3.72;;
63699;SDS011;49845;47.130;142.766;2024-02-16T06:36:54;6.50;;;3.50;;
63699;SDS011;49845;47.130;142.766;2024-02-16T06:39:25;5.68;;;3.55;;
63699;SDS011;49845;47.130;142.766;2024-02-16T06:41:59;7.18;;;4.20;;
63699;SDS011;49845;47.130;142.766;2024-02-16T06:44:30;7.40;;;3.92;;
63699;SDS011;49845;47.130;142.766;2024-02-16T06:47:01;7.05;;;3.58;;
63699;SDS011;49845;47.130;142.766;2024-02-16T06:49:31;6.93;;;3.50;;
63699;SDS011;49845;47.130;142.766;2024-02-16T06:52:01;7.45;;;3.97;;
63699;SDS011;49845;47.130;142.766;2024-02-16T06:54:33;5.43;;;3.30;;
63699;SDS011;49845;47.130;142.766;2024-02-16T06:57:05;5.45;;;3.40;;
63699;SDS011;49845;47.130;142.766;2024-02-16T06:59:39;10.00;;;4.20;;
63699;SDS011;49845;47.130;142.766;2024-02-16T07:02:09;9.30;;;4.95;;
63699;SDS011;49845;47.130;142.766;2024-02-16T07:04:40;6.70;;;3.95;;
63699;SDS011;49845;47.130;142.766;2024-02-16T07:07:13;8.20;;;4.78;;
63699;SDS011;49845;47.130;142.766;2024-02-16T07:09:43;8.90;;;4.80;;
63699;SDS011;49845;47.130;142.766;2024-02-16T07:12:15;8.32;;;5.10;;
63699;SDS011;49845;47.130;142.766;2024-02-16T07:14:46;9.48;;;4.93;;
63699;SDS011;49845;47.130;142.766;2024-02-16T07:17:18;12.18;;;5.60;;
63699;SDS011;49845;47.130;142.766;2024-02-16T07:19:48;10.30;;;6.45;;
63699;SDS011;49845;47.130;142.766;2024-02-16T07:22:19;15.48;;;8.25;;
63699;SDS011;49845;47.130;142.766;2024-02-16T07:24:49;16.88;;;9.27;;
63699;SDS011;49845;47.130;142.766;2024-02-16T07:27:21;15.60;;;7.90;;
63699;SDS011;49845;47.130;142.766;2024-02-16T07:29:52;15.80;;;8.55;;
63699;SDS011;49845;47.130;142.766;2024-02-16T07:32:23;19.65;;;9.27;;
63699;SDS011;49845;47.130;142.766;2024-02-16T07:34:53;16.30;;;9.30;;
63699;SDS011;49845;47.130;142.766;2024-02-16T07:37:24;16.20;;;8.82;;
63699;SDS011;49845;47.130;142.766;2024-02-16T07:39:54;21.13;;;9.52;;
63699;SDS011;49845;47.130;142.766;2024-02-16T07:42:26;19.70;;;7.78;;
63699;SDS011;49845;47.130;142.766;2024-02-16T07:44:57;19.73;;;9.00;;
63699;SDS011;49845;47.130;142.766;2024-02-16T07:47:27;14.35;;;8.18;;
63699;SDS011;49845;47.130;142.766;2024-02-16T07:49:58;12.45;;;5.53;;
63699;SDS011;49845;47.130;142.766;2024-02-16T07:52:28;10.05;;;6.00;;
63699;SDS011;49845;47.130;142.766;2024-02-16T07:54:59;9.57;;;5.78;;
63699;SDS011;49845;47.130;142.766;2024-02-16T07:57:31;12.80;;;5.80;;
63699;SDS011;49845;47.130;142.766;2024-02-16T08:00:02;10.82;;;6.10;;
63699;SDS011;49845;47.130;142.766;2024-02-16T08:02:33;10.90;;;6.00;;
63699;SDS011;49845;47.130;142.766;2024-02-16T08:05:04;13.45;;;6.53;;
63699;SDS011;49845;47.130;142.766;2024-02-16T08:07:35;12.95;;;6.82;;
63699;SDS011;49845;47.130;142.766;2024-02-16T08:10:06;17.27;;;7.28;;
63699;SDS011;49845;47.130;142.766;2024-02-16T08:12:39;21.38;;;11.55;;
63699;SDS011;49845;47.130;142.766;2024-02-16T08:15:09;28.33;;;13.32;;
63699;SDS011;49845;47.130;142.766;2024-02-16T08:17:40;21.40;;;11.02;;
63699;SDS011;49845;47.130;142.766;2024-02-16T08:20:11;16.00;;;9.20;;
63699;SDS011;49845;47.130;142.766;2024-02-16T08:22:42;15.15;;;9.07;;
63699;SDS011;49845;47.130;142.766;2024-02-16T08:25:12;37.72;;;18.05;;
63699;SDS011;49845;47.130;142.766;2024-02-16T08:27:44;39.75;;;19.67;;
63699;SDS011;49845;47.130;142.766;2024-02-16T08:30:15;48.17;;;23.23;;
63699;SDS011;49845;47.130;142.766;2024-02-16T08:32:45;19.92;;;10.70;;
63699;SDS011;49845;47.130;142.766;2024-02-16T08:35:16;18.23;;;9.63;;
63699;SDS011;49845;47.130;142.766;2024-02-16T08:37:47;24.75;;;10.48;;
63699;SDS011;49845;47.130;142.766;2024-02-16T08:40:17;23.20;;;10.50;;
63699;SDS011;49845;47.130;142.766;2024-02-16T08:42:50;24.60;;;10.48;;
63699;SDS011;49845;47.130;142.766;2024-02-16T08:45:20;19.05;;;10.77;;
63699;SDS011;49845;47.130;142.766;2024-02-16T08:47:50;55.13;;;19.80;;
63699;SDS011;49845;47.130;142.766;2024-02-16T08:50:22;33.22;;;14.55;;
63699;SDS011;49845;47.130;142.766;2024-02-16T08:52:53;38.90;;;17.42;;
63699;SDS011;49845;47.130;142.766;2024-02-16T08:55:23;31.88;;;14.52;;
63699;SDS011;49845;47.130;142.766;2024-02-16T08:57:55;51.05;;;21.60;;
63699;SDS011;49845;47.130;142.766;2024-02-16T09:00:26;33.92;;;15.85;;
63699;SDS011;49845;47.130;142.766;2024-02-16T09:02:57;51.72;;;21.90;;
63699;SDS011;49845;47.130;142.766;2024-02-16T09:05:30;61.88;;;26.08;;
63699;SDS011;49845;47.130;142.766;2024-02-16T09:08:00;48.85;;;21.38;;
63699;SDS011;49845;47.130;142.766;2024-02-16T09:10:32;200.30;;;67.90;;
63699;SDS011;49845;47.130;142.766;2024-02-16T09:13:06;236.23;;;89.18;;
63699;SDS011;49845;47.130;142.766;2024-02-16T09:15:37;30.58;;;15.45;;
63699;SDS011;49845;47.130;142.766;2024-02-16T09:18:07;36.38;;;16.58;;
63699;SDS011;49845;47.130;142.766;2024-02-16T09:20:38;36.78;;;17.45;;
63699;SDS011;49845;47.130;142.766;2024-02-16T09:23:08;25.20;;;12.98;;
63699;SDS011;49845;47.130;142.766;2024-02-16T09:25:39;22.58;;;11.95;;
63699;SDS011;49845;47.130;142.766;2024-02-16T09:28:11;24.58;;;12.07;;
63699;SDS011;49845;47.130;142.766;2024-02-16T09:30:52;23.98;;;11.75;;
63699;SDS011;49845;47.130;142.766;2024-02-16T09:33:24;40.35;;;18.73;;
63699;SDS011;49845;47.130;142.766;2024-02-16T09:35:55;21.88;;;11.05;;
63699;SDS011;49845;47.130;142.766;2024-02-16T09:38:26;28.88;;;13.30;;
63699;SDS011;49845;47.130;142.766;2024-02-16T09:40:57;27.27;;;12.13;;
63699;SDS011;49845;47.130;142.766;2024-02-16T09:43:29;29.25;;;13.25;;
63699;SDS011;49845;47.130;142.766;2024-02-16T09:46:00;26.23;;;11.88;;
63699;SDS011;49845;47.130;142.766;2024-02-16T09:48:30;23.63;;;11.55;;
63699;SDS011;49845;47.130;142.766;2024-02-16T09:51:01;20.80;;;11.05;;
63699;SDS011;49845;47.130;142.766;2024-02-16T09:53:32;22.15;;;11.05;;
63699;SDS011;49845;47.130;142.766;2024-02-16T09:56:05;24.92;;;11.95;;
63699;SDS011;49845;47.130;142.766;2024-02-16T09:58:38;34.72;;;14.38;;
63699;SDS011;49845;47.130;142.766;2024-02-16T10:01:16;39.50;;;16.45;;
63699;SDS011;49845;47.130;142.766;2024-02-16T10:03:48;45.25;;;18.45;;
63699;SDS011;49845;47.130;142.766;2024-02-16T10:06:19;53.47;;;20.48;;
63699;SDS011;49845;47.130;142.766;2024-02-16T10:08:50;44.40;;;18.00;;
63699;SDS011;49845;47.130;142.766;2024-02-16T10:11:23;62.42;;;21.08;;
63699;SDS011;49845;47.130;142.766;2024-02-16T10:13:58;80.22;;;24.33;;
63699;SDS011;49845;47.130;142.766;2024-02-16T10:16:31;169.32;;;47.42;;
63699;SDS011;49845;47.130;142.766;2024-02-16T10:19:04;184.75;;;51.53;;
63699;SDS011;49845;47.130;142.766;2024-02-16T10:21:36;244.45;;;82.70;;
63699;SDS011;49845;47.130;142.766;2024-02-16T10:24:07;201.88;;;69.72;;
63699;SDS011;49845;47.130;142.766;2024-02-16T10:26:38;44.90;;;19.33;;
63699;SDS011;49845;47.130;142.766;2024-02-16T10:29:10;42.30;;;17.90;;
63699;SDS011;49845;47.130;142.766;2024-02-16T10:31:43;39.67;;;16.25;;
63699;SDS011;49845;47.130;142.766;2024-02-16T10:34:14;34.45;;;15.40;;
63699;SDS011;49845;47.130;142.766;2024-02-16T10:36:46;34.58;;;15.80;;
63699;SDS011;49845;47.130;142.766;2024-02-16T10:39:17;33.40;;;15.35;;
63699;SDS011;49845;47.130;142.766;2024-02-16T10:41:48;51.00;;;21.13;;
63699;SDS011;49845;47.130;142.766;2024-02-16T10:44:22;108.28;;;35.78;;
63699;SDS011;49845;47.130;142.766;2024-02-16T10:46:53;52.13;;;20.77;;
63699;SDS011;49845;47.130;142.766;2024-02-16T10:49:24;41.25;;;17.20;;
63699;SDS011;49845;47.130;142.766;2024-02-16T10:51:55;35.97;;;16.30;;
63699;SDS011;49845;47.130;142.766;2024-02-16T10:54:29;42.88;;;18.10;;
63699;SDS011;49845;47.130;142.766;2024-02-16T10:57:07;36.95;;;16.33;;
63699;SDS011;49845;47.130;142.766;2024-02-16T10:59:40;46.78;;;21.23;;
63699;SDS011;49845;47.130;142.766;2024-02-16T11:02:13;55.63;;;20.50;;
63699;SDS011;49845;47.130;142.766;2024-02-16T11:04:45;45.30;;;18.98;;
63699;SDS011;49845;47.130;142.766;2024-02-16T11:07:17;84.18;;;25.75;;
63699;SDS011;49845;47.130;142.766;2024-02-16T11:09:50;88.65;;;25.92;;
63699;SDS011;49845;47.130;142.766;2024-02-16T11:12:21;91.95;;;28.17;;
63699;SDS011;49845;47.130;142.766;2024-02-16T11:14:53;104.97;;;28.10;;
63699;SDS011;49845;47.130;142.766;2024-02-16T11:17:26;60.35;;;19.05;;
63699;SDS011;49845;47.130;142.766;2024-02-16T11:19:59;61.45;;;19.70;;
63699;SDS011;49845;47.130;142.766;2024-02-16T11:22:30;63.78;;;20.30;;
63699;SDS011;49845;47.130;142.766;2024-02-16T11:25:00;49.38;;;17.17;;
63699;SDS011;49845;47.130;142.766;2024-02-16T11:27:34;33.45;;;13.32;;
63699;SDS011;49845;47.130;142.766;2024-02-16T11:30:07;26.40;;;12.63;;
63699;SDS011;49845;47.130;142.766;2024-02-16T11:32:42;22.45;;;12.15;;
63699;SDS011;49845;47.130;142.766;2024-02-16T11:35:13;21.83;;;11.07;;
63699;SDS011;49845;47.130;142.766;2024-02-16T11:37:44;36.20;;;15.73;;
63699;SDS011;49845;47.130;142.766;2024-02-16T11:40:15;116.15;;;30.45;;
63699;SDS011;49845;47.130;142.766;2024-02-16T11:42:46;64.30;;;19.50;;
63699;SDS011;49845;47.130;142.766;2024-02-16T11:45:21;54.95;;;17.80;;
63699;SDS011;49845;47.130;142.766;2024-02-16T11:47:51;54.63;;;19.10;;
63699;SDS011;49845;47.130;142.766;2024-02-16T11:50:32;34.15;;;12.75;;
63699;SDS011;49845;47.130;142.766;2024-02-16T11:53:03;26.35;;;11.60;;
63699;SDS011;49845;47.130;142.766;2024-02-16T11:55:33;128.50;;;39.78;;
63699;SDS011;49845;47.130;142.766;2024-02-16T11:58:04;33.47;;;15.75;;
63699;SDS011;49845;47.130;142.766;2024-02-16T12:00:36;57.33;;;24.10;;
63699;SDS011;49845;47.130;142.766;2024-02-16T12:03:07;38.97;;;18.35;;
63699;SDS011;49845;47.130;142.766;2024-02-16T12:05:37;27.85;;;13.43;;
63699;SDS011;49845;47.130;142.766;2024-02-16T12:08:08;20.20;;;10.68;;
63699;SDS011;49845;47.130;142.766;2024-02-16T12:10:38;31.25;;;12.23;;
63699;SDS011;49845;47.130;142.766;2024-02-16T12:13:09;23.48;;;11.38;;
63699;SDS011;49845;47.130;142.766;2024-02-16T12:15:41;20.17;;;11.10;;
63699;SDS011;49845;47.130;142.766;2024-02-16T12:18:22;20.63;;;11.15;;
63699;SDS011;49845;47.130;142.766;2024-02-16T12:20:57;22.60;;;11.63;;
63699;SDS011;49845;47.130;142.766;2024-02-16T12:23:29;22.70;;;13.05;;
63699;SDS011;49845;47.130;142.766;2024-02-16T12:26:00;17.25;;;8.90;;
63699;SDS011;49845;47.130;142.766;2024-02-16T12:28:30;16.20;;;9.23;;
63699;SDS011;49845;47.130;142.766;2024-02-16T12:31:03;18.55;;;8.50;;
63699;SDS011;49845;47.130;142.766;2024-02-16T12:33:33;15.68;;;8.40;;
63699;SDS011;49845;47.130;142.766;2024-02-16T12:36:04;16.92;;;8.68;;
63699;SDS011;49845;47.130;142.766;2024-02-16T12:38:35;13.43;;;8.63;;
63699;SDS011;49845;47.130;142.766;2024-02-16T12:41:05;26.50;;;10.65;;
63699;SDS011;49845;47.130;142.766;2024-02-16T12:43:36;34.47;;;12.05;;
63699;SDS011;49845;47.130;142.766;2024-02-16T12:46:09;22.00;;;9.40;;
63699;SDS011;49845;47.130;142.766;2024-02-16T12:48:40;22.55;;;9.63;;
63699;SDS011;49845;47.130;142.766;2024-02-16T12:51:13;23.67;;;8.30;;
63699;SDS011;49845;47.130;142.766;2024-02-16T12:53:44;24.17;;;8.82;;
63699;SDS011;49845;47.130;142.766;2024-02-16T12:56:15;18.98;;;7.45;;
63699;SDS011;49845;47.130;142.766;2024-02-16T12:58:46;10.82;;;6.65;;
63699;SDS011;49845;47.130;142.766;2024-02-16T13:01:18;12.07;;;6.78;;
63699;SDS011;49845;47.130;142.766;2024-02-16T13:03:52;16.90;;;7.93;;
63699;SDS011;49845;47.130;142.766;2024-02-16T13:06:23;15.60;;;8.60;;
63699;SDS011;49845;47.130;142.766;2024-02-16T13:08:55;49.67;;;21.73;;
63699;SDS011;49845;47.130;142.766;2024-02-16T13:11:26;30.70;;;15.48;;
63699;SDS011;49845;47.130;142.766;2024-02-16T13:13:56;27.35;;;13.00;;
63699;SDS011;49845;47.130;142.766;2024-02-16T13:16:28;27.13;;;13.10;;
63699;SDS011;49845;47.130;142.766;2024-02-16T13:18:59;20.02;;;11.02;;
63699;SDS011;49845;47.130;142.766;2024-02-16T13:21:31;14.00;;;8.70;;
63699;SDS011;49845;47.130;142.766;2024-02-16T13:24:02;19.63;;;7.82;;
63699;SDS011;49845;47.130;142.766;2024-02-16T13:26:50;18.58;;;8.55;;
63699;SDS011;49845;47.130;142.766;2024-02-16T13:29:37;15.15;;;6.95;;
63699;SDS011;49845;47.130;142.766;2024-02-16T13:32:09;15.70;;;7.15;;
63699;SDS011;49845;47.130;142.766;2024-02-16T13:34:39;19.65;;;8.57;;
63699;SDS011;49845;47.130;142.766;2024-02-16T13:37:10;17.70;;;8.60;;
63699;SDS011;49845;47.130;142.766;2024-02-16T13:39:41;13.82;;;7.43;;
63699;SDS011;49845;47.130;142.766;2024-02-16T13:42:14;31.45;;;10.48;;
63699;SDS011;49845;47.130;142.766;2024-02-16T13:45:01;24.75;;;10.15;;
63699;SDS011;49845;47.130;142.766;2024-02-16T13:47:50;19.45;;;10.13;;
63699;SDS011;49845;47.130;142.766;2024-02-16T13:50:37;13.50;;;6.60;;
63699;SDS011;49845;47.130;142.766;2024-02-16T13:53:24;17.35;;;7.28;;
63699;SDS011;49845;47.130;142.766;2024-02-16T13:55:56;13.75;;;7.15;;
63699;SDS011;49845;47.130;142.766;2024-02-16T13:58:31;13.20;;;7.20;;
63699;SDS011;49845;47.130;142.766;2024-02-16T14:01:04;58.50;;;14.35;;
63699;SDS011;49845;47.130;142.766;2024-02-16T14:03:37;79.38;;;19.25;;
63699;SDS011;49845;47.130;142.766;2024-02-16T14:06:09;74.57;;;19.85;;
63699;SDS011;49845;47.130;142.766;2024-02-16T14:08:41;63.20;;;15.27;;
63699;SDS011;49845;47.130;142.766;2024-02-16T14:11:11;24.13;;;10.13;;
63699;SDS011;49845;47.130;142.766;2024-02-16T14:13:43;21.30;;;9.40;;
63699;SDS011;49845;47.130;142.766;2024-02-16T14:16:14;16.15;;;7.60;;
63699;SDS011;49845;47.130;142.766;2024-02-16T14:18:46;15.68;;;7.55;;
63699;SDS011;49845;47.130;142.766;2024-02-16T14:21:20;19.02;;;7.80;;
63699;SDS011;49845;47.130;142.766;2024-02-16T14:23:53;30.60;;;10.80;;
63699;SDS011;49845;47.130;142.766;2024-02-16T14:26:24;30.55;;;10.90;;
63699;SDS011;49845;47.130;142.766;2024-02-16T14:28:55;22.95;;;8.40;;
63699;SDS011;49845;47.130;142.766;2024-02-16T14:31:26;17.92;;;7.85;;
63699;SDS011;49845;47.130;142.766;2024-02-16T14:34:00;18.70;;;8.40;;
63699;SDS011;49845;47.130;142.766;2024-02-16T14:36:34;14.00;;;7.22;;